Time;durP1;ratioP1;P1;durP2;ratioP2;P2;SDS_P1;SDS_P2;PMS_P1;PMS_P2;Temp;Humidity;BMP_temperature;BMP_pressure;BME280_temperature;BME280_humidity;BME280_pressure;Samples;Min_cycle;Max_cycle;Signal;HPM_P1;HPM_P2
2022/01/06 00:00:29;;;;;;;6.47;3.43;;;2.00;99.90;;;;;;5031805;28;20555;-49
2022/01/06 00:02:56;;;;;;;6.20;3.37;;;2.00;99.90;;;;;;5043999;28;20472;-52
2022/01/06 00:05:23;;;;;;;2.57;2.20;;;2.00;99.90;;;;;;5050576;28;20470;-51
2022/01/06 00:07:50;;;;;;;1.90;1.80;;;2.00;99.90;;;;;;5037548;28;20480;-50
2022/01/06 00:10:17;;;;;;;81.00;46.90;;;2.00;99.90;;;;;;5041042;28;20462;-49
2022/01/06 00:12:50;;;;;;;25.53;14.00;;;2.00;99.90;;;;;;5049425;28;20512;-50
2022/01/06 00:15:33;;;;;;;4.47;3.20;;;2.00;99.90;;;;;;5039851;28;20452;-50
2022/01/06 00:18:18;;;;;;;2.80;2.43;;;2.00;99.90;;;;;;5039549;28;20447;-50
2022/01/06 00:23:33;;;;;;;2.33;2.10;;;2.00;99.90;;;;;;5044977;28;20787;-50
2022/01/06 00:26:01;;;;;;;2.30;2.20;;;2.00;99.90;;;;;;5045574;28;20794;-52
2022/01/06 00:28:29;;;;;;;3.63;2.97;;;2.00;99.90;;;;;;5036266;28;20876;-50
2022/01/06 00:30:56;;;;;;;3.00;2.03;;;1.90;99.90;;;;;;5042619;28;20577;-51
2022/01/06 00:33:26;;;;;;;3.43;1.87;;;1.70;99.90;;;;;;5028027;28;21123;-53
2022/01/06 00:35:53;;;;;;;2.63;2.43;;;1.70;99.90;;;;;;5029170;28;20486;-52
2022/01/06 00:38:22;;;;;;;2.87;2.67;;;1.70;99.90;;;;;;5028997;28;20483;-50
2022/01/06 00:40:48;;;;;;;3.87;3.13;;;1.70;99.90;;;;;;5032720;28;20961;-50
2022/01/06 00:43:15;;;;;;;2.77;2.57;;;1.70;99.90;;;;;;5032958;28;20470;-54
2022/01/06 00:45:42;;;;;;;2.57;2.37;;;1.60;99.90;;;;;;5031817;28;20525;-52
2022/01/06 00:48:10;;;;;;;2.63;2.43;;;1.60;99.90;;;;;;5034035;28;20529;-49
2022/01/06 00:50:40;;;;;;;2.60;2.40;;;1.60;99.90;;;;;;5035811;28;20474;-51
2022/01/06 00:53:07;;;;;;;2.27;2.07;;;1.60;99.90;;;;;;5032197;28;20482;-54
2022/01/06 00:55:35;;;;;;;3.10;2.17;;;1.60;99.90;;;;;;5029820;28;20822;-53
2022/01/06 00:58:03;;;;;;;2.90;2.33;;;1.60;99.90;;;;;;5034774;28;20465;-50
2022/01/06 01:00:38;;;;;;;2.00;1.90;;;1.60;99.90;;;;;;5028536;28;20569;-50
2022/01/06 01:03:06;;;;;;;1.90;1.80;;;1.60;99.90;;;;;;5028670;28;20449;-53
2022/01/06 01:05:33;;;;;;;2.33;2.20;;;1.70;99.90;;;;;;5032148;28;20487;-52
2022/01/06 01:08:01;;;;;;;2.67;2.20;;;1.70;99.90;;;;;;5033447;28;20497;-51
2022/01/06 01:10:28;;;;;;;2.87;2.60;;;1.70;99.90;;;;;;5029490;28;20508;-52
2022/01/06 01:12:55;;;;;;;2.40;2.20;;;1.70;99.90;;;;;;5032667;28;20482;-51
2022/01/06 01:15:23;;;;;;;2.60;2.40;;;1.70;99.90;;;;;;5035116;28;20516;-49
2022/01/06 01:17:51;;;;;;;2.10;1.90;;;1.70;99.90;;;;;;5029476;28;20477;-50
2022/01/06 01:20:19;;;;;;;2.23;2.13;;;1.70;99.90;;;;;;5030845;28;20497;-53
2022/01/06 01:22:46;;;;;;;2.90;2.20;;;1.70;99.90;;;;;;5033018;28;20465;-52
2022/01/06 01:25:15;;;;;;;3.00;2.50;;;1.70;99.90;;;;;;5033457;28;20474;-51
2022/01/06 01:27:44;;;;;;;2.13;1.93;;;1.70;99.90;;;;;;5030641;28;20477;-50
2022/01/06 01:30:14;;;;;;;2.50;2.30;;;1.70;99.90;;;;;;5035567;28;20483;-52
2022/01/06 01:32:49;;;;;;;2.17;1.70;;;1.60;99.90;;;;;;5030542;28;20810;-50
2022/01/06 01:35:16;;;;;;;2.47;2.10;;;1.60;99.90;;;;;;5029128;28;20442;-52
2022/01/06 01:37:43;;;;;;;1.73;1.63;;;1.60;99.90;;;;;;5028647;28;20489;-51
2022/01/06 01:40:12;;;;;;;2.30;2.10;;;1.60;99.90;;;;;;5033425;28;20474;-50
2022/01/06 01:42:41;;;;;;;2.30;2.20;;;1.60;99.90;;;;;;5034583;28;20566;-50
2022/01/06 01:45:09;;;;;;;4.23;2.37;;;1.60;99.90;;;;;;5030333;28;20453;-50
2022/01/06 01:47:42;;;;;;;2.20;2.00;;;1.60;99.90;;;;;;5038081;28;20966;-50
2022/01/06 01:50:13;;;;;;;1.80;1.70;;;1.60;99.90;;;;;;5034868;28;20430;-49
2022/01/06 01:52:41;;;;;;;2.50;2.30;;;1.60;99.90;;;;;;5029137;28;20434;-51
2022/01/06 01:55:10;;;;;;;2.40;2.13;;;1.70;99.90;;;;;;5029741;28;20457;-49
2022/01/06 01:57:37;;;;;;;1.90;1.80;;;1.70;99.90;;;;;;5038282;28;20565;-52
2022/01/06 02:00:08;;;;;;;2.00;1.80;;;1.70;99.90;;;;;;5032671;28;20921;-49
2022/01/06 02:02:35;;;;;;;2.10;2.00;;;1.70;99.90;;;;;;5030257;28;20605;-52
2022/01/06 02:05:02;;;;;;;2.37;2.17;;;1.80;99.90;;;;;;5030687;28;20477;-50
2022/01/06 02:07:29;;;;;;;1.83;1.73;;;1.80;99.90;;;;;;5038146;28;20939;-50
2022/01/06 02:09:56;;;;;;;1.97;1.87;;;1.80;99.90;;;;;;5036449;28;20473;-51
2022/01/06 02:12:29;;;;;;;2.67;2.17;;;1.80;99.90;;;;;;5043239;28;20469;-50
2022/01/06 02:14:56;;;;;;;2.37;2.17;;;1.80;99.90;;;;;;5041525;28;20787;-50
2022/01/06 02:17:24;;;;;;;3.17;2.47;;;1.90;99.90;;;;;;5031662;28;20470;-48
2022/01/06 02:19:57;;;;;;;4.53;2.67;;;1.90;99.90;;;;;;5024339;28;20492;-49
2022/01/06 02:22:24;;;;;;;2.43;2.00;;;1.90;99.90;;;;;;5043820;28;20524;-50
2022/01/06 02:24:52;;;;;;;2.77;2.57;;;1.90;99.90;;;;;;5043313;28;20477;-50
2022/01/06 02:27:20;;;;;;;2.67;2.47;;;1.90;99.90;;;;;;5035644;28;20891;-50
2022/01/06 02:29:48;;;;;;;3.17;2.43;;;1.90;99.90;;;;;;5043120;28;20450;-49
2022/01/06 02:32:16;;;;;;;2.60;2.10;;;1.80;99.90;;;;;;5046703;28;20476;-49
2022/01/06 02:34:45;;;;;;;2.53;2.33;;;1.80;99.90;;;;;;5034789;28;20461;-50
2022/01/06 02:37:14;;;;;;;2.50;2.30;;;1.70;99.90;;;;;;5036593;28;20455;-50
2022/01/06 02:39:43;;;;;;;2.37;2.17;;;1.70;99.90;;;;;;5049548;28;20468;-54
2022/01/06 02:42:11;;;;;;;2.13;2.03;;;1.70;99.90;;;;;;5041113;28;20513;-49
2022/01/06 02:44:39;;;;;;;2.90;2.70;;;1.70;99.90;;;;;;5037872;28;20459;-50
2022/01/06 02:47:07;;;;;;;2.43;1.90;;;1.70;99.90;;;;;;5045904;28;20542;-49
2022/01/06 02:49:34;;;;;;;2.93;2.57;;;1.70;99.90;;;;;;5040225;28;20855;-50
2022/01/06 02:52:01;;;;;;;2.80;2.60;;;1.70;99.90;;;;;;5033482;28;20486;-52
2022/01/06 02:54:30;;;;;;;2.50;2.30;;;1.70;99.90;;;;;;5039705;28;20965;-51
2022/01/06 02:56:57;;;;;;;2.33;1.83;;;1.80;99.90;;;;;;5042953;28;20472;-50
2022/01/06 02:59:24;;;;;;;2.10;1.97;;;1.80;99.90;;;;;;5038436;28;20482;-50
2022/01/06 03:01:51;;;;;;;1.90;1.50;;;1.80;99.90;;;;;;5038777;28;20517;-51
2022/01/06 03:04:19;;;;;;;1.93;1.67;;;1.70;99.90;;;;;;5042105;28;20913;-51
2022/01/06 03:06:46;;;;;;;2.70;2.50;;;1.60;99.90;;;;;;5041432;28;21001;-49
2022/01/06 03:09:12;;;;;;;2.67;2.50;;;1.60;99.90;;;;;;5036602;28;20954;-50
2022/01/06 03:11:43;;;;;;;3.07;2.77;;;1.50;99.90;;;;;;5042444;28;20520;-51
2022/01/06 03:14:10;;;;;;;4.03;3.40;;;1.50;99.90;;;;;;5045686;28;20442;-52
2022/01/06 03:16:37;;;;;;;2.60;2.40;;;1.50;99.90;;;;;;5033292;28;20474;-49
2022/01/06 03:19:04;;;;;;;3.00;2.70;;;1.50;99.90;;;;;;5033082;28;20966;-50
2022/01/06 03:21:31;;;;;;;3.13;2.23;;;1.50;99.90;;;;;;5047602;28;20513;-50
2022/01/06 03:23:58;;;;;;;2.60;2.40;;;1.20;99.90;;;;;;5034675;28;20477;-50
2022/01/06 03:26:25;;;;;;;3.33;2.93;;;0.90;99.90;;;;;;5036999;28;20469;-52
2022/01/06 03:28:53;;;;;;;3.00;2.70;;;0.60;99.90;;;;;;5047089;28;20484;-47
2022/01/06 03:31:21;;;;;;;2.27;2.07;;;0.40;99.90;;;;;;5037742;28;20509;-49
2022/01/06 03:33:48;;;;;;;2.97;2.77;;;0.30;99.90;;;;;;5036709;28;20984;-53
2022/01/06 03:36:15;;;;;;;2.73;2.53;;;0.20;99.90;;;;;;5041367;28;20577;-50
2022/01/06 03:38:42;;;;;;;8.23;4.10;;;0.10;99.90;;;;;;5040087;28;20473;-53
2022/01/06 03:41:09;;;;;;;3.10;2.13;;;0.10;99.90;;;;;;5036809;28;20475;-48
2022/01/06 03:43:36;;;;;;;2.47;2.27;;;0.20;99.90;;;;;;5040389;28;20888;-50
2022/01/06 03:46:04;;;;;;;2.67;2.10;;;0.40;99.90;;;;;;5047010;28;20958;-50
2022/01/06 03:48:31;;;;;;;3.20;2.50;;;0.50;99.90;;;;;;5039202;28;20467;-49
2022/01/06 03:50:58;;;;;;;2.73;1.83;;;0.60;99.90;;;;;;5037697;28;20511;-50
2022/01/06 03:53:25;;;;;;;3.00;2.80;;;0.70;99.90;;;;;;5034426;28;20477;-51
2022/01/06 03:55:52;;;;;;;2.90;2.70;;;0.60;99.90;;;;;;5042358;28;20466;-49
2022/01/06 03:58:19;;;;;;;2.50;2.30;;;0.50;99.90;;;;;;5034956;28;20470;-49
2022/01/06 04:00:45;;;;;;;2.37;2.17;;;0.70;99.90;;;;;;5041253;28;20511;-50
2022/01/06 04:03:14;;;;;;;3.00;2.03;;;0.80;99.90;;;;;;5044587;28;20511;-51
2022/01/06 04:05:41;;;;;;;2.00;1.90;;;0.90;99.90;;;;;;5033944;28;20485;-49
2022/01/06 04:08:08;;;;;;;2.07;1.87;;;1.10;99.90;;;;;;5039937;28;20485;-54
2022/01/06 04:10:35;;;;;;;2.43;2.23;;;1.20;99.90;;;;;;5046492;28;20496;-50
2022/01/06 04:13:02;;;;;;;2.93;2.73;;;1.20;99.90;;;;;;5035901;28;20831;-50
2022/01/06 04:15:29;;;;;;;2.07;1.87;;;1.20;99.90;;;;;;5036446;28;20445;-52
2022/01/06 04:17:56;;;;;;;2.87;2.67;;;1.30;99.90;;;;;;5038811;28;20886;-48
2022/01/06 04:20:24;;;;;;;2.57;2.43;;;1.20;99.90;;;;;;5037966;28;20514;-49
2022/01/06 04:22:51;;;;;;;2.40;2.20;;;1.20;99.90;;;;;;5037180;28;20509;-50
2022/01/06 04:25:18;;;;;;;2.97;2.50;;;1.30;99.90;;;;;;5042616;28;20492;-50
2022/01/06 04:27:45;;;;;;;2.50;2.30;;;1.10;99.90;;;;;;5045984;28;20495;-52
2022/01/06 04:30:12;;;;;;;2.47;2.27;;;1.10;99.90;;;;;;5036775;28;20502;-50
2022/01/06 04:32:39;;;;;;;2.23;2.00;;;1.10;99.90;;;;;;5040171;28;20482;-50
2022/01/06 04:35:09;;;;;;;3.90;3.10;;;1.20;99.90;;;;;;5041125;28;20465;-49
2022/01/06 04:37:37;;;;;;;2.70;2.50;;;1.20;99.90;;;;;;5041328;28;20973;-52
2022/01/06 04:40:05;;;;;;;2.70;2.50;;;1.30;99.90;;;;;;5040828;28;20485;-50
2022/01/06 04:42:32;;;;;;;3.53;2.30;;;1.40;99.90;;;;;;5045793;28;20528;-50
2022/01/06 04:44:59;;;;;;;3.03;2.77;;;1.40;99.90;;;;;;5046599;28;20477;-50
2022/01/06 04:47:26;;;;;;;2.80;2.60;;;1.40;99.90;;;;;;5036861;28;20915;-50
2022/01/06 04:49:53;;;;;;;5.27;3.10;;;1.50;99.90;;;;;;5044434;28;20480;-49
2022/01/06 04:52:20;;;;;;;3.10;2.80;;;1.50;99.90;;;;;;5042309;28;20875;-49
2022/01/06 04:54:48;;;;;;;3.13;2.83;;;1.40;99.90;;;;;;5037979;28;20484;-49
2022/01/06 04:57:15;;;;;;;2.90;2.70;;;1.30;99.90;;;;;;5042042;28;20485;-50
2022/01/06 04:59:42;;;;;;;4.03;3.47;;;1.30;99.90;;;;;;5048957;28;20472;-52
2022/01/06 05:02:09;;;;;;;2.73;2.53;;;1.40;99.90;;;;;;5038426;28;20512;-50
2022/01/06 05:04:36;;;;;;;4.53;3.67;;;1.50;99.90;;;;;;5039688;28;20499;-50
2022/01/06 05:07:04;;;;;;;6.50;5.40;;;1.50;99.90;;;;;;5048262;28;20489;-52
2022/01/06 05:09:31;;;;;;;3.00;2.80;;;1.50;99.90;;;;;;5042550;28;20469;-49
2022/01/06 05:11:59;;;;;;;3.43;2.77;;;1.60;99.90;;;;;;5040182;28;20499;-52
2022/01/06 05:14:26;;;;;;;3.27;2.47;;;1.60;99.90;;;;;;5044811;28;21293;-50
2022/01/06 05:16:55;;;;;;;3.73;2.50;;;1.60;99.90;;;;;;5041300;28;20485;-52
2022/01/06 05:19:22;;;;;;;2.87;2.67;;;1.60;99.90;;;;;;5039720;28;20453;-51
2022/01/06 05:21:51;;;;;;;3.00;2.70;;;1.60;99.90;;;;;;5041169;28;20496;-49
2022/01/06 05:24:18;;;;;;;2.90;2.60;;;1.60;99.90;;;;;;5040454;28;20446;-53
2022/01/06 05:26:45;;;;;;;3.20;3.00;;;1.60;99.90;;;;;;5043223;28;20859;-50
2022/01/06 05:29:14;;;;;;;3.13;2.93;;;1.60;99.90;;;;;;5037361;28;20473;-50
2022/01/06 05:31:42;;;;;;;3.07;2.87;;;1.60;99.90;;;;;;5044036;28;20555;-50
2022/01/06 05:34:09;;;;;;;4.40;2.83;;;1.60;99.90;;;;;;5047283;28;20469;-52
2022/01/06 05:36:36;;;;;;;3.20;2.80;;;1.60;99.90;;;;;;5036367;28;20481;-50
2022/01/06 05:39:04;;;;;;;1.90;1.80;;;1.60;99.90;;;;;;5042070;28;20476;-48
2022/01/06 05:41:31;;;;;;;2.07;1.87;;;1.60;99.90;;;;;;5066854;22;21078;-81
2022/01/06 05:43:59;;;;;;;5.90;3.37;;;1.60;99.90;;;;;;5074982;28;20557;-80
2022/01/06 05:46:27;;;;;;;11.90;6.27;;;1.60;99.90;;;;;;5074783;28;20448;-81
2022/01/06 05:48:54;;;;;;;7.17;3.90;;;1.30;99.90;;;;;;5074269;28;20481;-81
2022/01/06 05:51:21;;;;;;;9.87;5.37;;;1.30;99.90;;;;;;5080464;28;20496;-81
2022/01/06 05:53:50;;;;;;;4.53;4.10;;;1.30;99.90;;;;;;5078603;28;20441;-81
2022/01/06 05:56:17;;;;;;;6.23;4.00;;;1.40;99.90;;;;;;5075435;28;20899;-80
2022/01/06 05:58:43;;;;;;;4.80;3.97;;;1.40;99.90;;;;;;5074436;28;20485;-82
2022/01/06 06:01:10;;;;;;;4.70;3.67;;;1.40;99.90;;;;;;5073464;28;20509;-81
2022/01/06 06:03:39;;;;;;;4.43;2.93;;;1.40;99.90;;;;;;5071306;28;20520;-81
2022/01/06 06:06:06;;;;;;;3.87;3.50;;;1.20;99.90;;;;;;5077243;28;20490;-81
2022/01/06 06:08:33;;;;;;;3.73;2.77;;;1.00;99.90;;;;;;5073609;28;20964;-81
2022/01/06 06:11:00;;;;;;;4.73;4.30;;;0.80;99.90;;;;;;5074435;28;20949;-81
2022/01/06 06:13:27;;;;;;;4.97;3.67;;;0.60;99.90;;;;;;5073825;28;20443;-81
2022/01/06 06:15:54;;;;;;;4.23;3.83;;;0.50;99.90;;;;;;5074489;28;20470;-81
2022/01/06 06:18:21;;;;;;;6.80;4.10;;;0.40;99.90;;;;;;5073338;28;20469;-80
2022/01/06 06:20:49;;;;;;;10.70;5.57;;;0.40;99.90;;;;;;5074424;28;20533;-81
2022/01/06 06:23:16;;;;;;;8.43;4.97;;;0.60;99.90;;;;;;5074855;28;20508;-80
2022/01/06 06:25:43;;;;;;;14.37;6.67;;;0.50;99.90;;;;;;5073725;28;20886;-80
2022/01/06 06:28:10;;;;;;;6.90;3.87;;;0.60;99.90;;;;;;5073793;28;20494;-81
2022/01/06 06:30:37;;;;;;;2.90;2.47;;;0.80;99.90;;;;;;5071953;28;20491;-81
2022/01/06 06:33:04;;;;;;;3.53;2.87;;;0.90;99.90;;;;;;5073712;28;20464;-81
2022/01/06 06:35:32;;;;;;;2.57;2.37;;;1.00;99.90;;;;;;5072163;28;20532;-82
2022/01/06 06:38:00;;;;;;;2.90;2.30;;;1.10;99.90;;;;;;5072699;28;20461;-81
2022/01/06 06:40:27;;;;;;;3.20;2.90;;;1.10;99.90;;;;;;5082060;28;20835;-81
2022/01/06 06:42:56;;;;;;;27.20;15.67;;;1.20;99.90;;;;;;5077065;28;20496;-81
2022/01/06 06:45:23;;;;;;;17.93;13.73;;;1.30;99.90;;;;;;5081683;28;20970;-81
2022/01/06 06:47:51;;;;;;;32.37;20.63;;;1.30;99.90;;;;;;5073723;28;20451;-81
2022/01/06 06:50:18;;;;;;;20.73;14.40;;;1.30;99.90;;;;;;5080944;28;20933;-81
2022/01/06 06:52:45;;;;;;;6.57;5.90;;;1.30;99.90;;;;;;5074970;28;20508;-81
2022/01/06 06:55:14;;;;;;;6.40;4.87;;;1.40;99.90;;;;;;5078585;28;20929;-81
2022/01/06 06:57:41;;;;;;;3.87;3.40;;;1.40;99.90;;;;;;5072496;28;20484;-81
2022/01/06 07:00:10;;;;;;;6.90;5.30;;;1.30;99.90;;;;;;5071008;28;20464;-82
2022/01/06 07:02:37;;;;;;;5.77;5.27;;;1.10;99.90;;;;;;5071705;28;20914;-81
2022/01/06 07:05:05;;;;;;;5.43;4.93;;;1.00;99.90;;;;;;5073065;28;20961;-82
2022/01/06 07:07:32;;;;;;;6.57;5.90;;;1.10;99.90;;;;;;5072954;28;20498;-81
2022/01/06 07:09:59;;;;;;;5.50;4.87;;;1.20;99.90;;;;;;5071460;28;20479;-81
2022/01/06 07:12:28;;;;;;;3.30;2.77;;;1.20;99.90;;;;;;5069305;28;20948;-81
2022/01/06 07:14:55;;;;;;;2.93;2.70;;;1.30;99.90;;;;;;5073118;28;20445;-81
2022/01/06 07:17:21;;;;;;;2.40;2.20;;;1.30;99.90;;;;;;5071094;28;20874;-81
2022/01/06 07:19:48;;;;;;;2.50;2.30;;;1.40;99.90;;;;;;5071561;28;20552;-81
2022/01/06 07:22:15;;;;;;;2.53;2.33;;;1.40;99.90;;;;;;5071904;28;20477;-81
2022/01/06 07:24:42;;;;;;;2.23;2.13;;;1.40;99.90;;;;;;5073035;28;20483;-80
2022/01/06 07:27:09;;;;;;;3.57;2.73;;;1.50;99.90;;;;;;5067799;28;20488;-81
2022/01/06 07:29:37;;;;;;;2.53;2.27;;;1.40;99.90;;;;;;5071442;28;20480;-81
2022/01/06 07:32:05;;;;;;;3.20;2.90;;;1.40;99.90;;;;;;5076308;28;20483;-81
2022/01/06 07:34:32;;;;;;;3.83;3.37;;;1.50;99.90;;;;;;5072001;28;20471;-82
2022/01/06 07:37:00;;;;;;;3.90;3.00;;;1.40;99.90;;;;;;5063735;28;20567;-81
2022/01/06 07:39:27;;;;;;;3.90;3.60;;;1.40;99.90;;;;;;5066956;28;20462;-81
2022/01/06 07:41:54;;;;;;;4.10;3.30;;;1.30;99.90;;;;;;5068263;28;20484;-82
2022/01/06 07:44:21;;;;;;;2.43;2.23;;;1.10;99.90;;;;;;5065412;28;20567;-82
2022/01/06 07:46:49;;;;;;;2.53;2.20;;;1.00;99.90;;;;;;5067813;28;20476;-81
2022/01/06 07:49:17;;;;;;;3.33;3.13;;;0.80;99.90;;;;;;5060064;28;20545;-82
2022/01/06 07:51:44;;;;;;;7.60;6.10;;;0.80;99.90;;;;;;5070183;28;20964;-82
2022/01/06 07:54:11;;;;;;;5.97;4.33;;;0.90;99.90;;;;;;5072450;28;20558;-81
2022/01/06 07:56:38;;;;;;;63.43;39.60;;;0.90;99.90;;;;;;5069997;28;20480;-82
2022/01/06 07:59:05;;;;;;;83.63;66.20;;;1.00;99.90;;;;;;5068258;28;20476;-82
2022/01/06 08:01:32;;;;;;;38.37;31.70;;;1.10;99.90;;;;;;5067891;28;20497;-82
2022/01/06 08:04:00;;;;;;;12.17;9.80;;;1.20;99.90;;;;;;5067808;28;20480;-81
2022/01/06 08:06:27;;;;;;;6.73;6.07;;;1.10;99.90;;;;;;5079550;28;20493;-81
2022/01/06 08:08:54;;;;;;;6.37;4.40;;;0.60;99.90;;;;;;5070743;28;20468;-82
2022/01/06 08:11:21;;;;;;;4.17;3.77;;;0.40;99.90;;;;;;5073804;28;20464;-81
2022/01/06 08:13:48;;;;;;;4.87;3.97;;;0.30;99.90;;;;;;5074464;28;20447;-81
2022/01/06 08:16:15;;;;;;;21.43;19.13;;;0.40;99.90;;;;;;5075346;28;20600;-81
2022/01/06 08:18:42;;;;;;;70.63;50.57;;;0.60;99.90;;;;;;5075179;28;20476;-81
2022/01/06 08:21:10;;;;;;;45.60;39.33;;;0.70;99.90;;;;;;5074270;28;20492;-81
2022/01/06 08:23:37;;;;;;;9.93;8.93;;;0.90;99.90;;;;;;5075539;28;20511;-81
2022/01/06 08:26:04;;;;;;;7.60;6.90;;;1.00;99.90;;;;;;5075567;28;20496;-81
2022/01/06 08:28:31;;;;;;;9.10;7.50;;;1.20;99.90;;;;;;5075712;28;20476;-81
2022/01/06 08:30:58;;;;;;;7.63;6.87;;;1.00;99.90;;;;;;5075103;28;20526;-81
2022/01/06 08:33:26;;;;;;;9.10;6.80;;;0.70;99.90;;;;;;5079697;28;20440;-81
2022/01/06 08:35:53;;;;;;;7.20;6.50;;;0.40;99.90;;;;;;5073845;28;21028;-81
2022/01/06 08:38:22;;;;;;;8.30;7.50;;;0.30;99.90;;;;;;5074953;28;20951;-81
2022/01/06 08:40:49;;;;;;;8.53;7.80;;;0.50;99.90;;;;;;5074720;28;20545;-81
2022/01/06 08:43:16;;;;;;;8.70;7.73;;;0.70;99.90;;;;;;5074242;28;20586;-81
2022/01/06 08:45:43;;;;;;;14.30;10.90;;;0.80;99.90;;;;;;5073960;28;20861;-81
2022/01/06 08:48:10;;;;;;;7.30;6.70;;;1.00;99.90;;;;;;5073173;28;20471;-81
2022/01/06 08:50:40;;;;;;;8.53;7.73;;;0.80;99.90;;;;;;5073153;28;20491;-81
2022/01/06 08:53:07;;;;;;;10.63;8.37;;;0.50;99.90;;;;;;5070601;28;20467;-81
2022/01/06 08:55:35;;;;;;;7.47;6.73;;;0.60;99.90;;;;;;5074013;28;20474;-82
2022/01/06 08:58:02;;;;;;;4.87;4.40;;;0.80;99.90;;;;;;5074016;28;20465;-81
2022/01/06 09:00:30;;;;;;;6.50;4.20;;;1.00;99.90;;;;;;5072539;28;20491;-81
2022/01/06 09:02:57;;;;;;;7.43;6.77;;;1.20;99.90;;;;;;5075083;28;20468;-81
2022/01/06 09:05:25;;;;;;;7.90;7.10;;;1.30;99.90;;;;;;5073640;28;20505;-81
2022/01/06 09:07:53;;;;;;;8.43;7.70;;;1.40;99.90;;;;;;5073078;28;20490;-81
2022/01/06 09:10:23;;;;;;;9.10;6.57;;;1.50;99.90;;;;;;5075431;28;20503;-83
2022/01/06 09:12:51;;;;;;;6.90;6.17;;;1.50;99.90;;;;;;5073007;28;20441;-81
2022/01/06 09:15:18;;;;;;;7.33;6.60;;;1.20;99.90;;;;;;5073152;28;20541;-82
2022/01/06 09:17:45;;;;;;;8.40;7.30;;;0.90;99.90;;;;;;5072490;28;20468;-81
2022/01/06 09:20:13;;;;;;;6.73;6.07;;;0.70;99.90;;;;;;5072178;28;20481;-82
2022/01/06 09:22:40;;;;;;;6.93;6.27;;;0.60;99.90;;;;;;5072058;28;20507;-81
2022/01/06 09:25:08;;;;;;;5.90;5.30;;;0.70;99.90;;;;;;5073143;28;20898;-81
2022/01/06 09:27:35;;;;;;;6.50;5.87;;;0.90;99.90;;;;;;5072444;28;20482;-81
2022/01/06 09:30:04;;;;;;;7.40;6.00;;;1.00;99.90;;;;;;5073076;28;20492;-82
2022/01/06 09:32:31;;;;;;;11.37;9.83;;;1.20;99.90;;;;;;5072735;28;20451;-81
2022/01/06 09:35:00;;;;;;;13.57;9.20;;;1.30;99.90;;;;;;5073920;28;20537;-81
2022/01/06 09:37:27;;;;;;;16.27;10.60;;;1.30;99.90;;;;;;5073014;28;20520;-81
2022/01/06 09:39:55;;;;;;;7.70;6.43;;;1.30;99.90;;;;;;5073551;28;20495;-81
2022/01/06 09:42:22;;;;;;;7.83;7.10;;;1.30;99.90;;;;;;5074184;28;21210;-81
2022/01/06 09:44:51;;;;;;;9.43;8.27;;;1.30;99.90;;;;;;5079325;28;20504;-81
2022/01/06 09:47:20;;;;;;;14.63;9.03;;;1.20;99.90;;;;;;5079984;28;21131;-82
2022/01/06 09:49:47;;;;;;;9.57;7.73;;;1.20;99.90;;;;;;5078134;28;20510;-82
2022/01/06 09:52:14;;;;;;;7.90;7.20;;;1.00;99.90;;;;;;5080486;28;20460;-81
2022/01/06 09:54:42;;;;;;;9.77;8.63;;;0.90;99.90;;;;;;5080524;28;20467;-81
2022/01/06 09:57:12;;;;;;;8.40;7.50;;;0.70;99.90;;;;;;5078620;28;20955;-82
2022/01/06 09:59:41;;;;;;;9.00;8.10;;;0.40;99.90;;;;;;5077932;28;20461;-81
2022/01/06 10:02:14;;;;;;;10.37;8.60;;;0.40;99.90;;;;;;5075443;28;20479;-81
2022/01/06 10:04:43;;;;;;;10.43;9.00;;;0.50;99.90;;;;;;5077291;28;20547;-82
2022/01/06 10:07:11;;;;;;;9.23;7.87;;;0.60;99.90;;;;;;5077987;28;20443;-81
2022/01/06 10:09:40;;;;;;;9.37;7.47;;;0.80;99.90;;;;;;5078177;28;20464;-82
2022/01/06 10:12:11;;;;;;;10.53;6.40;;;0.90;99.90;;;;;;5082532;28;20447;-82
2022/01/06 10:14:42;;;;;;;6.43;5.80;;;1.00;99.90;;;;;;5078410;28;20675;-82
2022/01/06 10:17:10;;;;;;;4.50;3.97;;;1.10;99.90;;;;;;5079141;28;20450;-81
2022/01/06 10:19:40;;;;;;;4.43;4.03;;;1.20;99.90;;;;;;5078157;28;20479;-81
2022/01/06 10:22:13;;;;;;;5.20;4.07;;;1.20;99.90;;;;;;5080597;28;20975;-81
2022/01/06 10:24:44;;;;;;;4.60;3.67;;;1.30;99.90;;;;;;5080876;28;20489;-81
2022/01/06 10:27:13;;;;;;;3.70;3.37;;;1.30;99.90;;;;;;5076672;28;20459;-81
2022/01/06 10:29:44;;;;;;;3.80;3.47;;;1.40;99.90;;;;;;5078572;28;20464;-81
2022/01/06 10:32:13;;;;;;;4.47;3.57;;;1.50;99.90;;;;;;5083491;28;20451;-82
2022/01/06 10:34:42;;;;;;;4.30;3.90;;;1.60;99.90;;;;;;5077567;28;20440;-81
2022/01/06 10:37:20;;;;;;;4.43;4.03;;;1.70;99.90;;;;;;5077810;28;20960;-81
2022/01/06 10:39:49;;;;;;;6.53;6.03;;;1.70;99.90;;;;;;5079819;28;20452;-81
2022/01/06 10:42:16;;;;;;;8.27;7.47;;;1.80;99.90;;;;;;5077353;28;20475;-81
2022/01/06 10:44:48;;;;;;;6.90;6.30;;;1.90;99.90;;;;;;5077065;28;20534;-81
2022/01/06 10:47:16;;;;;;;9.47;8.47;;;2.00;99.90;;;;;;5070970;28;20817;-81
2022/01/06 10:49:43;;;;;;;12.60;9.60;;;2.00;99.90;;;;;;5074664;28;20469;-82
2022/01/06 10:52:10;;;;;;;10.70;9.60;;;1.90;99.90;;;;;;5075040;28;20506;-81
2022/01/06 10:54:39;;;;;;;12.87;10.23;;;2.00;99.90;;;;;;5075009;28;20444;-81
2022/01/06 10:57:09;;;;;;;8.93;8.07;;;2.00;99.90;;;;;;5074936;28;20519;-81
2022/01/06 10:59:37;;;;;;;9.03;7.33;;;2.00;99.90;;;;;;5075607;28;20463;-81
2022/01/06 11:02:06;;;;;;;6.67;6.07;;;2.00;99.90;;;;;;5075883;28;20456;-81
2022/01/06 11:04:33;;;;;;;7.97;6.87;;;2.00;99.90;;;;;;5073937;28;20477;-81
2022/01/06 11:07:00;;;;;;;7.10;6.23;;;2.00;99.90;;;;;;5074912;28;20442;-81
2022/01/06 11:09:30;;;;;;;5.43;4.93;;;2.10;99.90;;;;;;5074682;28;20458;-82
2022/01/06 11:14:46;;;;;;;14.10;10.87;;;2.00;99.90;;;;;;5074341;28;20477;-81
2022/01/06 11:17:13;;;;;;;14.13;10.03;;;1.80;99.90;;;;;;5073934;28;20441;-82
2022/01/06 11:19:40;;;;;;;8.53;7.20;;;1.60;99.90;;;;;;5073769;28;20468;-82
2022/01/06 11:22:09;;;;;;;7.17;6.40;;;1.60;99.90;;;;;;5072694;28;20476;-81
2022/01/06 11:24:38;;;;;;;8.53;6.43;;;1.60;99.90;;;;;;5073830;28;20487;-81
2022/01/06 11:27:10;;;;;;;5.57;5.10;;;1.70;99.90;;;;;;5071699;28;20452;-81
2022/01/06 11:29:41;;;;;;;3.93;3.57;;;1.80;99.90;;;;;;5074371;28;21011;-81
2022/01/06 11:32:19;;;;;;;4.50;4.10;;;1.90;99.90;;;;;;5074604;28;20465;-82
2022/01/06 11:34:46;;;;;;;5.00;4.50;;;2.10;99.90;;;;;;5073171;28;20442;-81
2022/01/06 11:37:15;;;;;;;5.00;4.60;;;2.00;99.90;;;;;;5072740;28;20493;-81
2022/01/06 11:39:43;;;;;;;4.40;4.10;;;1.90;99.90;;;;;;5075474;28;20859;-81
2022/01/06 11:42:16;;;;;;;5.27;4.40;;;1.90;99.90;;;;;;5083209;22;20491;-56
2022/01/06 11:44:51;;;;;;;5.13;4.63;;;2.00;99.90;;;;;;5049893;28;21165;-56
2022/01/06 11:47:30;;;;;;;5.07;4.67;;;2.20;99.90;;;;;;5056101;28;20457;-57
2022/01/06 11:50:12;;;;;;;5.30;4.80;;;2.10;99.90;;;;;;5055513;28;20496;-57
2022/01/06 11:52:50;;;;;;;7.87;6.83;;;2.10;99.90;;;;;;5039519;28;20499;-56
2022/01/06 11:55:19;;;;;;;15.60;8.07;;;2.30;99.90;;;;;;5064734;22;20528;-50
2022/01/06 11:57:47;;;;;;;4.17;3.87;;;2.30;99.90;;;;;;5041060;28;20458;-49
2022/01/06 12:00:20;;;;;;;4.23;3.40;;;2.10;99.90;;;;;;5036733;28;20944;-51
2022/01/06 12:02:57;;;;;;;3.57;3.27;;;2.20;99.90;;;;;;5036077;28;20478;-50
2022/01/06 12:05:24;;;;;;;2.80;2.60;;;2.30;99.90;;;;;;5052517;28;20487;-50
2022/01/06 12:07:52;;;;;;;2.73;2.53;;;2.30;99.90;;;;;;5064731;28;20472;-50
2022/01/06 12:10:20;;;;;;;3.33;3.10;;;2.30;99.90;;;;;;5056837;28;20445;-50
2022/01/06 12:12:50;;;;;;;5.43;4.93;;;2.20;99.90;;;;;;5056453;28;20445;-52
2022/01/06 12:15:18;;;;;;;5.47;4.67;;;2.20;99.90;;;;;;5055626;28;20457;-51
2022/01/06 12:17:48;;;;;;;9.40;6.20;;;2.20;99.90;;;;;;5053702;28;21923;-50
2022/01/06 12:20:24;;;;;;;4.87;4.27;;;2.20;99.90;;;;;;5056840;28;20481;-52
2022/01/06 12:22:51;;;;;;;3.93;3.17;;;2.20;99.90;;;;;;5055303;28;20474;-52
2022/01/06 12:25:23;;;;;;;4.03;3.60;;;2.10;99.90;;;;;;5058125;28;20515;-50
2022/01/06 12:27:53;;;;;;;3.77;3.37;;;2.00;99.90;;;;;;5055679;28;20473;-54
2022/01/06 12:30:21;;;;;;;3.90;3.50;;;1.80;99.90;;;;;;5055832;28;21054;-50
2022/01/06 12:33:00;;;;;;;4.20;3.90;;;1.60;99.90;;;;;;5057104;28;20477;-50
2022/01/06 12:35:48;;;;;;;6.20;3.53;;;1.60;99.90;;;;;;5055205;28;20814;-51
2022/01/06 12:38:18;;;;;;;3.53;3.23;;;1.50;99.90;;;;;;5056237;28;20494;-50
2022/01/06 12:40:45;;;;;;;3.70;2.97;;;1.60;99.90;;;;;;5056138;28;20445;-52
2022/01/06 12:43:21;;;;;;;3.47;3.17;;;1.60;99.90;;;;;;5056304;28;20469;-51
2022/01/06 12:46:02;;;;;;;5.27;3.73;;;1.70;99.90;;;;;;5055559;28;20520;-50
2022/01/06 12:48:31;;;;;;;3.60;3.30;;;1.80;99.90;;;;;;5054168;28;20938;-50
2022/01/06 12:50:58;;;;;;;3.00;2.67;;;1.70;99.90;;;;;;5055678;28;20453;-50
2022/01/06 12:53:27;;;;;;;3.60;3.17;;;1.60;99.90;;;;;;5057457;28;20445;-52
2022/01/06 12:55:55;;;;;;;4.63;4.07;;;1.60;99.90;;;;;;5056370;28;20472;-50
2022/01/06 12:58:31;;;;;;;3.93;3.50;;;1.60;99.90;;;;;;5052258;28;20449;-50
2022/01/06 13:00:59;;;;;;;5.83;3.80;;;1.70;99.90;;;;;;5051809;28;20461;-51
2022/01/06 13:03:31;;;;;;;4.80;4.40;;;1.80;99.90;;;;;;5053656;28;20465;-50
2022/01/06 13:05:59;;;;;;;5.10;4.60;;;1.90;99.90;;;;;;5052213;28;20512;-50